createdAt,value
2022-09-21T00:00:02.671Z,7.70
2022-09-21T00:02:29.889Z,7.60
2022-09-21T00:04:57.895Z,7.60
2022-09-21T00:07:24.513Z,7.70
2022-09-21T00:09:55.778Z,7.70
2022-09-21T00:12:22.509Z,7.70
2022-09-21T00:14:55.309Z,7.80
2022-09-21T00:17:25.000Z,7.80
2022-09-21T00:19:51.584Z,7.90
2022-09-21T00:22:19.526Z,8.00
2022-09-21T00:24:46.720Z,8.00
2022-09-21T00:27:13.320Z,7.90
2022-09-21T00:29:39.904Z,7.90
2022-09-21T00:32:08.783Z,7.90
2022-09-21T00:34:35.416Z,7.90
2022-09-21T00:37:02.158Z,7.90
2022-09-21T00:39:30.703Z,7.90
2022-09-21T00:41:57.363Z,7.90
2022-09-21T00:44:25.492Z,7.90
2022-09-21T00:46:56.981Z,7.90
2022-09-21T00:49:23.927Z,7.80
2022-09-21T00:51:51.191Z,7.80
2022-09-21T00:54:21.535Z,7.80
2022-09-21T00:56:49.599Z,7.80
2022-09-21T00:59:21.415Z,7.80
2022-09-21T01:01:49.520Z,7.80
2022-09-21T01:04:16.236Z,7.70
2022-09-21T01:06:42.942Z,7.60
2022-09-21T01:09:10.367Z,7.60
2022-09-21T01:11:42.420Z,7.50
2022-09-21T01:14:20.632Z,7.50
2022-09-21T01:16:52.991Z,7.40
2022-09-21T01:19:28.569Z,7.30
2022-09-21T01:22:00.452Z,7.30
2022-09-21T01:24:39.912Z,7.20
2022-09-21T01:27:30.459Z,7.20
2022-09-21T01:30:00.478Z,7.10
2022-09-21T01:32:28.751Z,7.10
2022-09-21T01:34:58.830Z,7.00
2022-09-21T01:37:31.072Z,7.00
2022-09-21T01:40:00.578Z,7.00
2022-09-21T01:42:28.342Z,7.00
2022-09-21T01:44:56.133Z,7.00
2022-09-21T01:47:24.606Z,7.10
2022-09-21T01:49:54.050Z,7.00
2022-09-21T01:52:23.170Z,6.90
2022-09-21T01:54:52.058Z,6.90
2022-09-21T01:57:23.638Z,6.90
2022-09-21T01:59:51.252Z,6.70
2022-09-21T02:02:20.727Z,6.70
2022-09-21T02:04:50.718Z,6.60
2022-09-21T02:07:18.073Z,6.60
2022-09-21T02:09:44.930Z,6.60
2022-09-21T02:12:18.756Z,6.40
2022-09-21T02:14:46.125Z,6.30
2022-09-21T02:17:33.925Z,6.20
2022-09-21T02:20:07.206Z,6.30
2022-09-21T02:22:38.929Z,6.10
2022-09-21T02:25:07.407Z,6.00
2022-09-21T02:27:37.911Z,6.00
2022-09-21T02:30:07.229Z,6.00
2022-09-21T02:32:38.721Z,5.80
2022-09-21T02:35:09.571Z,5.80
2022-09-21T02:37:40.459Z,5.90
2022-09-21T02:40:13.448Z,5.80
2022-09-21T02:42:42.609Z,5.70
2022-09-21T02:45:11.187Z,5.80
2022-09-21T02:47:40.710Z,5.80
2022-09-21T02:50:11.261Z,5.70
2022-09-21T02:52:39.339Z,5.70
2022-09-21T02:55:06.618Z,5.60
2022-09-21T02:57:34.403Z,5.60
2022-09-21T03:00:01.492Z,5.70
2022-09-21T03:02:35.573Z,5.70
2022-09-21T03:05:03.369Z,5.60
2022-09-21T03:07:31.390Z,5.50
2022-09-21T03:09:58.067Z,5.40
2022-09-21T03:12:25.318Z,5.30
2022-09-21T03:14:51.984Z,5.20
2022-09-21T03:17:18.643Z,5.40
2022-09-21T03:19:45.823Z,5.30
2022-09-21T03:22:12.401Z,5.30
2022-09-21T03:24:40.332Z,5.30
2022-09-21T03:27:07.568Z,5.40
2022-09-21T03:29:34.166Z,5.30
2022-09-21T03:32:01.278Z,5.40
2022-09-21T03:34:28.502Z,5.10
2022-09-21T03:36:55.077Z,4.90
2022-09-21T03:39:21.658Z,4.90
2022-09-21T03:41:50.207Z,4.80
2022-09-21T03:44:16.860Z,4.80
2022-09-21T03:46:43.643Z,5.00
2022-09-21T03:49:10.842Z,5.10
2022-09-21T03:51:37.434Z,4.80
2022-09-21T03:54:04.050Z,4.90
2022-09-21T03:56:31.339Z,4.90
2022-09-21T03:58:59.356Z,4.90
2022-09-21T04:01:26.001Z,4.90
2022-09-21T04:03:53.366Z,4.90
2022-09-21T04:06:20.017Z,4.80
2022-09-21T04:08:46.605Z,4.80
2022-09-21T04:11:15.234Z,4.70
2022-09-21T04:13:41.858Z,4.60
2022-09-21T04:16:10.062Z,4.60
2022-09-21T04:18:37.416Z,4.50
2022-09-21T04:21:04.185Z,4.60
2022-09-21T04:23:30.797Z,4.60
2022-09-21T04:25:58.072Z,4.60
2022-09-21T04:28:25.427Z,4.60
2022-09-21T04:30:52.764Z,4.60
2022-09-21T04:33:22.526Z,4.40
2022-09-21T04:35:54.024Z,4.50
2022-09-21T04:38:20.625Z,4.40
2022-09-21T04:40:54.119Z,4.20
2022-09-21T04:43:22.701Z,4.20
2022-09-21T04:45:49.422Z,4.40
2022-09-21T04:48:16.229Z,4.30
2022-09-21T04:50:48.027Z,4.20
2022-09-21T04:53:14.658Z,4.00
2022-09-21T04:55:41.406Z,4.10
2022-09-21T04:58:08.645Z,4.00
2022-09-21T05:00:35.232Z,3.80
2022-09-21T05:03:01.835Z,3.80
2022-09-21T05:05:29.053Z,3.90
2022-09-21T05:07:56.991Z,4.00
2022-09-21T05:10:23.577Z,4.00
2022-09-21T05:12:50.864Z,3.90
2022-09-21T05:15:17.460Z,3.90
2022-09-21T05:17:44.126Z,3.90
2022-09-21T05:20:13.583Z,3.80
2022-09-21T05:22:40.163Z,3.80
2022-09-21T05:25:09.314Z,3.90
2022-09-21T05:27:37.563Z,3.90
2022-09-21T05:30:04.823Z,3.90
2022-09-21T05:32:38.312Z,4.00
2022-09-21T05:35:10.643Z,4.00
2022-09-21T05:37:42.030Z,4.00
2022-09-21T05:40:12.062Z,4.10
2022-09-21T05:42:38.952Z,4.00
2022-09-21T05:45:06.204Z,4.00
2022-09-21T05:47:37.333Z,4.10
2022-09-21T05:50:13.769Z,4.20
2022-09-21T05:52:45.074Z,4.20
2022-09-21T05:55:20.972Z,4.30
2022-09-21T05:57:54.385Z,4.20
2022-09-21T06:00:21.918Z,4.30
2022-09-21T06:02:53.718Z,4.30
2022-09-21T06:05:20.831Z,4.30
2022-09-21T06:07:47.430Z,4.30
2022-09-21T06:10:16.075Z,4.40
2022-09-21T06:12:42.800Z,4.40
2022-09-21T06:15:11.292Z,4.50
2022-09-21T06:17:38.489Z,4.70
2022-09-21T06:20:05.657Z,4.80
2022-09-21T06:22:32.262Z,4.80
2022-09-21T06:24:59.485Z,4.90
2022-09-21T06:27:27.571Z,5.00
2022-09-21T06:29:54.271Z,5.10
2022-09-21T06:32:21.458Z,5.40
2022-09-21T06:34:48.042Z,5.60
2022-09-21T06:37:14.700Z,5.90
2022-09-21T06:39:41.913Z,6.00
2022-09-21T06:42:08.523Z,6.20
2022-09-21T06:44:36.492Z,6.50
2022-09-21T06:47:03.832Z,6.80
2022-09-21T06:49:30.430Z,7.10
2022-09-21T06:51:57.038Z,7.40
2022-09-21T06:54:24.268Z,7.50
2022-09-21T06:56:50.858Z,7.50
2022-09-21T06:59:17.463Z,7.60
2022-09-21T07:01:46.100Z,7.80
2022-09-21T07:04:12.739Z,9.00
2022-09-21T07:06:39.326Z,9.90
2022-09-21T07:11:53.147Z,10.80
2022-09-21T07:14:20.348Z,11.10
2022-09-21T07:16:48.345Z,11.00
2022-09-21T07:19:14.946Z,11.20
2022-09-21T07:21:42.194Z,11.60
2022-09-21T07:24:12.168Z,11.30
2022-09-21T07:26:39.352Z,11.30
2022-09-21T07:29:07.358Z,10.90
2022-09-21T07:31:37.111Z,10.80
2022-09-21T07:34:05.136Z,10.30
2022-09-21T07:36:32.466Z,10.70
2022-09-21T07:38:59.036Z,10.60
2022-09-21T07:41:25.781Z,10.80
2022-09-21T07:43:53.033Z,11.10
2022-09-21T07:46:19.650Z,11.10
2022-09-21T07:48:46.704Z,11.30
2022-09-21T07:51:15.626Z,11.40
2022-09-21T07:53:43.187Z,11.00
2022-09-21T07:56:10.670Z,11.50
2022-09-21T07:58:38.045Z,11.60
2022-09-21T08:01:05.354Z,11.90
2022-09-21T08:03:32.050Z,11.80
2022-09-21T08:05:59.499Z,11.60
2022-09-21T08:08:27.470Z,11.90
2022-09-21T08:10:54.059Z,12.10
2022-09-21T08:13:21.245Z,12.30
2022-09-21T08:15:50.226Z,12.30
2022-09-21T08:18:17.060Z,12.30
2022-09-21T08:20:44.467Z,12.30
2022-09-21T08:23:11.054Z,12.50
2022-09-21T08:25:38.978Z,12.60
2022-09-21T08:28:09.865Z,12.40
2022-09-21T08:30:36.783Z,12.70
2022-09-21T08:33:03.417Z,13.10
2022-09-21T08:35:30.629Z,13.30
2022-09-21T08:37:57.232Z,13.00
2022-09-21T08:40:23.992Z,13.20
2022-09-21T08:42:56.270Z,13.00
2022-09-21T08:45:25.059Z,13.30
2022-09-21T08:47:53.523Z,13.70
2022-09-21T08:50:24.631Z,13.30
2022-09-21T08:52:52.373Z,13.70
2022-09-21T08:55:20.247Z,13.60
2022-09-21T08:57:47.288Z,13.70
2022-09-21T09:00:16.314Z,13.70
2022-09-21T09:02:59.992Z,13.50
2022-09-21T09:05:33.414Z,13.80
2022-09-21T09:08:25.154Z,13.30
2022-09-21T09:10:56.350Z,14.00
2022-09-21T09:13:33.700Z,14.40
2022-09-21T09:16:06.015Z,13.50
2022-09-21T09:18:43.382Z,14.60
2022-09-21T09:21:15.175Z,14.90
2022-09-21T09:23:46.696Z,14.70
2022-09-21T09:26:17.553Z,14.00
2022-09-21T09:28:51.346Z,14.50
2022-09-21T09:31:24.513Z,14.40
2022-09-21T09:33:55.937Z,14.30
2022-09-21T09:36:46.582Z,15.10
2022-09-21T09:39:13.090Z,14.80
2022-09-21T09:41:55.270Z,15.50
2022-09-21T09:44:26.913Z,15.80
2022-09-21T09:47:00.817Z,14.90
2022-09-21T09:49:32.476Z,14.80
2022-09-21T09:51:59.910Z,15.40
2022-09-21T09:54:27.303Z,14.80
2022-09-21T09:56:54.243Z,15.20
2022-09-21T09:59:26.328Z,16.30
2022-09-21T10:02:00.949Z,16.00
2022-09-21T10:04:28.372Z,15.30
2022-09-21T10:06:55.008Z,15.30
2022-09-21T10:09:25.898Z,15.50
2022-09-21T10:11:54.923Z,15.60
2022-09-21T10:14:23.377Z,17.30
2022-09-21T10:16:50.732Z,17.40
2022-09-21T10:19:20.970Z,17.90
2022-09-21T10:21:51.956Z,17.10
2022-09-21T10:24:21.576Z,17.00
2022-09-21T10:26:49.704Z,16.10
2022-09-21T10:29:19.964Z,15.70
2022-09-21T10:31:54.127Z,16.70
2022-09-21T10:34:23.491Z,17.00
2022-09-21T10:36:51.791Z,17.80
2022-09-21T10:39:19.351Z,17.60
2022-09-21T10:41:54.045Z,17.70
2022-09-21T10:44:22.350Z,17.40
2022-09-21T10:46:49.866Z,18.40
2022-09-21T10:49:22.162Z,18.10
2022-09-21T10:51:52.663Z,17.40
2022-09-21T10:54:22.915Z,18.10
2022-09-21T10:56:54.007Z,18.00
2022-09-21T10:59:24.500Z,16.90
2022-09-21T11:01:52.457Z,16.80
2022-09-21T11:04:40.334Z,16.20
2022-09-21T11:07:12.649Z,16.50
2022-09-21T11:09:40.858Z,16.40
2022-09-21T11:12:14.324Z,17.30
2022-09-21T11:14:49.293Z,16.50
2022-09-21T11:17:19.806Z,16.30
2022-09-21T11:19:49.538Z,15.70
2022-09-21T11:22:22.141Z,16.50
2022-09-21T11:24:50.653Z,16.20
2022-09-21T11:27:21.139Z,17.00
2022-09-21T11:29:52.843Z,16.60
2022-09-21T11:32:26.665Z,17.30
2022-09-21T11:35:12.084Z,17.10
2022-09-21T11:37:48.915Z,17.00
2022-09-21T11:40:24.506Z,17.00
2022-09-21T11:42:56.719Z,17.90
2022-09-21T11:45:30.286Z,18.60
2022-09-21T11:48:04.387Z,17.80
2022-09-21T11:50:45.916Z,17.80
2022-09-21T11:53:21.128Z,18.70
2022-09-21T11:56:03.010Z,18.60
2022-09-21T11:58:32.466Z,18.20
2022-09-21T12:01:05.669Z,17.50
2022-09-21T12:03:39.493Z,16.90
2022-09-21T12:06:17.894Z,17.60
2022-09-21T12:09:03.014Z,17.40
2022-09-21T12:11:34.929Z,17.90
2022-09-21T12:14:05.931Z,17.40
2022-09-21T12:16:35.351Z,17.00
2022-09-21T12:19:05.972Z,17.60
2022-09-21T12:21:35.643Z,17.30
2022-09-21T12:24:04.223Z,15.90
2022-09-21T12:26:36.222Z,16.70
2022-09-21T12:29:06.314Z,17.60
2022-09-21T12:31:37.933Z,17.40
2022-09-21T12:34:09.893Z,17.80
2022-09-21T12:36:41.142Z,18.10
2022-09-21T12:39:15.035Z,18.20
2022-09-21T12:41:47.613Z,17.50
2022-09-21T12:44:17.482Z,17.40
2022-09-21T12:46:46.265Z,17.90
2022-09-21T12:49:15.534Z,17.00
2022-09-21T12:51:44.310Z,16.70
2022-09-21T12:54:17.550Z,17.10
2022-09-21T12:56:48.974Z,16.90
2022-09-21T12:59:22.557Z,17.50
2022-09-21T13:01:56.929Z,16.70
2022-09-21T13:04:42.059Z,16.90
2022-09-21T13:07:29.028Z,17.40
2022-09-21T13:09:56.051Z,18.80
2022-09-21T13:12:25.663Z,18.70
2022-09-21T13:15:01.134Z,19.10
2022-09-21T13:17:30.283Z,18.10
2022-09-21T13:19:58.512Z,18.40
2022-09-21T13:22:26.055Z,17.40
2022-09-21T13:25:06.699Z,18.60
2022-09-21T13:27:52.099Z,18.10
2022-09-21T13:30:28.848Z,18.10
2022-09-21T13:32:55.461Z,17.50
2022-09-21T13:35:37.563Z,17.40
2022-09-21T13:38:31.312Z,16.80
2022-09-21T13:40:59.607Z,16.50
2022-09-21T13:43:45.276Z,16.10
2022-09-21T13:46:33.334Z,16.10
2022-09-21T13:49:02.774Z,16.30
2022-09-21T13:51:33.083Z,16.50
2022-09-21T13:54:01.225Z,16.00
2022-09-21T13:56:29.276Z,16.70
2022-09-21T13:58:58.052Z,17.20
2022-09-21T14:04:20.182Z,17.50
2022-09-21T14:06:48.246Z,17.60
2022-09-21T14:09:21.778Z,17.30
2022-09-21T14:11:53.628Z,16.90
2022-09-21T14:14:24.241Z,17.10
2022-09-21T14:16:55.359Z,16.90
2022-09-21T14:19:41.004Z,17.10
2022-09-21T14:22:22.478Z,17.20
2022-09-21T14:25:11.003Z,16.60
2022-09-21T14:27:44.776Z,15.80
2022-09-21T14:30:17.538Z,16.20
2022-09-21T14:32:45.661Z,16.60
2022-09-21T14:35:15.929Z,16.80
2022-09-21T14:37:46.427Z,16.60
2022-09-21T14:40:20.233Z,16.20
2022-09-21T14:42:47.263Z,16.20
2022-09-21T14:45:16.590Z,16.60
2022-09-21T14:47:51.141Z,16.80
2022-09-21T14:50:23.423Z,16.50
2022-09-21T14:52:59.978Z,16.80
2022-09-21T14:55:32.174Z,16.90
2022-09-21T14:58:11.545Z,16.60
2022-09-21T15:00:39.870Z,16.50
2022-09-21T15:03:25.248Z,17.00
2022-09-21T15:05:55.162Z,16.80
2022-09-21T15:08:32.427Z,16.40
2022-09-21T15:11:06.786Z,16.20
2022-09-21T15:13:44.157Z,16.30
2022-09-21T15:16:16.872Z,16.30
2022-09-21T15:18:45.282Z,16.50
2022-09-21T15:21:19.949Z,16.20
2022-09-21T15:23:46.734Z,16.00
2022-09-21T15:26:16.776Z,16.30
2022-09-21T15:29:07.900Z,16.20
2022-09-21T15:31:32.875Z,15.80
2022-09-21T15:34:00.150Z,16.00
2022-09-21T15:36:28.675Z,15.90
2022-09-21T15:38:55.880Z,15.80
2022-09-21T15:41:40.341Z,15.50
2022-09-21T15:44:12.564Z,15.70
2022-09-21T15:46:39.668Z,15.50
2022-09-21T15:49:09.755Z,15.80
2022-09-21T15:51:38.334Z,16.40
2022-09-21T15:54:06.940Z,15.90
2022-09-21T15:56:34.306Z,16.00
2022-09-21T15:59:03.785Z,15.60
2022-09-21T16:01:30.704Z,15.40
2022-09-21T16:04:02.420Z,15.40
2022-09-21T16:06:36.450Z,15.50
2022-09-21T16:09:27.552Z,15.30
2022-09-21T16:11:55.090Z,15.60
2022-09-21T16:14:23.311Z,15.60
2022-09-21T16:17:08.445Z,15.50
2022-09-21T16:19:42.566Z,15.60
2022-09-21T16:22:11.141Z,15.40
2022-09-21T16:24:43.849Z,15.30
2022-09-21T16:27:14.813Z,15.10
2022-09-21T16:29:44.762Z,15.50
2022-09-21T16:32:20.067Z,15.40
2022-09-21T16:34:47.828Z,15.10
2022-09-21T16:37:22.099Z,14.80
2022-09-21T16:39:49.282Z,14.60
2022-09-21T16:42:16.245Z,14.60
2022-09-21T16:44:44.169Z,14.50
2022-09-21T16:47:12.592Z,14.40
2022-09-21T16:49:39.170Z,14.30
2022-09-21T16:52:05.755Z,14.20
2022-09-21T16:54:32.958Z,14.00
2022-09-21T16:57:02.208Z,14.00
2022-09-21T16:59:29.205Z,13.90
2022-09-21T17:01:58.087Z,13.70
2022-09-21T17:04:25.525Z,13.50
2022-09-21T17:06:52.456Z,13.30
2022-09-21T17:09:22.974Z,13.20
2022-09-21T17:11:52.522Z,13.00
2022-09-21T17:14:20.221Z,12.90
2022-09-21T17:16:47.914Z,12.70
2022-09-21T17:19:16.089Z,12.60
2022-09-21T17:21:43.318Z,12.50
2022-09-21T17:24:09.877Z,12.30
2022-09-21T17:26:39.042Z,12.10
2022-09-21T17:29:13.971Z,12.00
2022-09-21T17:31:40.613Z,11.80
2022-09-21T17:34:09.030Z,11.80
2022-09-21T17:36:37.223Z,11.70
2022-09-21T17:39:03.913Z,11.60
2022-09-21T17:41:35.022Z,11.50
2022-09-21T17:44:05.243Z,11.30
2022-09-21T17:46:36.297Z,11.10
2022-09-21T17:49:03.544Z,10.90
2022-09-21T17:51:30.490Z,10.80
2022-09-21T17:53:59.345Z,10.60
2022-09-21T17:56:31.957Z,10.50
2022-09-21T17:59:00.959Z,10.40
2022-09-21T18:01:30.739Z,10.30
2022-09-21T18:03:57.741Z,10.40
2022-09-21T18:06:25.525Z,10.30
2022-09-21T18:08:54.069Z,10.40
2022-09-21T18:11:36.589Z,10.30
2022-09-21T18:14:08.316Z,10.30
2022-09-21T18:16:38.141Z,10.00
2022-09-21T18:19:15.446Z,10.00
2022-09-21T18:21:45.544Z,9.90
2022-09-21T18:24:19.123Z,9.70
2022-09-21T18:26:47.582Z,9.60
2022-09-21T18:29:39.011Z,9.50
2022-09-21T18:32:14.491Z,9.30
2022-09-21T18:34:54.404Z,9.20
2022-09-21T18:37:27.472Z,9.30
2022-09-21T18:40:00.094Z,9.40
2022-09-21T18:42:38.051Z,9.20
2022-09-21T18:45:10.456Z,9.10
2022-09-21T18:47:41.142Z,8.90
2022-09-21T18:50:16.459Z,8.70
2022-09-21T18:52:49.418Z,8.50
2022-09-21T18:55:22.658Z,8.40
2022-09-21T18:57:51.118Z,8.50
2022-09-21T19:00:19.032Z,8.70
2022-09-21T19:03:05.479Z,8.50
2022-09-21T19:08:38.777Z,8.50
2022-09-21T19:11:13.283Z,8.50
2022-09-21T19:13:47.167Z,8.20
2022-09-21T19:16:24.331Z,8.20
2022-09-21T19:19:04.472Z,8.20
2022-09-21T19:21:39.817Z,8.20
2022-09-21T19:24:17.838Z,8.20
2022-09-21T19:26:51.032Z,8.10
2022-09-21T19:29:30.855Z,8.10
2022-09-21T19:31:58.450Z,8.00
2022-09-21T19:34:25.574Z,8.00
2022-09-21T19:36:52.441Z,7.90
2022-09-21T19:39:21.637Z,7.90
2022-09-21T19:41:59.278Z,7.90
2022-09-21T19:44:48.447Z,7.80
2022-09-21T19:47:25.270Z,7.70
2022-09-21T19:49:54.059Z,7.60
2022-09-21T19:52:28.194Z,7.60
2022-09-21T19:54:57.909Z,7.60
2022-09-21T19:57:24.746Z,7.60
2022-09-21T19:59:51.836Z,7.60
2022-09-21T20:02:23.272Z,7.50
2022-09-21T20:04:55.001Z,7.50
2022-09-21T20:07:31.486Z,7.50
2022-09-21T20:10:11.893Z,7.40
2022-09-21T20:12:45.976Z,7.40
2022-09-21T20:15:17.103Z,7.50
2022-09-21T20:17:49.834Z,7.50
2022-09-21T20:20:21.188Z,7.40
2022-09-21T20:22:48.845Z,7.40
2022-09-21T20:25:21.439Z,7.30
2022-09-21T20:27:50.342Z,7.40
2022-09-21T20:30:20.447Z,7.30
2022-09-21T20:32:51.809Z,7.20
2022-09-21T20:35:21.056Z,7.20
2022-09-21T20:37:48.086Z,7.20
2022-09-21T20:40:16.599Z,7.10
2022-09-21T20:42:44.335Z,6.90
2022-09-21T20:45:12.340Z,7.20
2022-09-21T20:47:39.724Z,7.00
2022-09-21T20:50:08.602Z,7.00
2022-09-21T20:52:35.346Z,6.90
2022-09-21T20:55:02.147Z,6.70
2022-09-21T20:57:30.810Z,6.80
2022-09-21T20:59:57.501Z,6.70
2022-09-21T21:02:24.194Z,6.90
2022-09-21T21:04:51.541Z,6.90
2022-09-21T21:07:18.265Z,6.80
2022-09-21T21:09:44.974Z,6.80
2022-09-21T21:12:12.316Z,6.70
2022-09-21T21:14:40.363Z,6.70
2022-09-21T21:17:07.186Z,6.60
2022-09-21T21:19:34.658Z,6.60
2022-09-21T21:22:01.384Z,6.60
2022-09-21T21:24:28.172Z,6.70
2022-09-21T21:27:02.101Z,6.60
2022-09-21T21:29:29.930Z,6.60
2022-09-21T21:31:58.965Z,6.60
2022-09-21T21:34:26.018Z,6.50
2022-09-21T21:36:53.118Z,6.50
2022-09-21T21:39:20.517Z,6.40
2022-09-21T21:41:47.443Z,6.30
2022-09-21T21:44:14.213Z,6.40
2022-09-21T21:46:41.771Z,6.20
2022-09-21T21:49:09.870Z,6.40
2022-09-21T21:51:36.582Z,6.40
2022-09-21T21:54:03.911Z,6.40
2022-09-21T21:56:30.740Z,6.40
2022-09-21T21:58:57.471Z,6.30
2022-09-21T22:01:26.687Z,6.30
2022-09-21T22:03:54.791Z,6.20
2022-09-21T22:06:23.647Z,6.10
2022-09-21T22:08:51.725Z,6.20
2022-09-21T22:11:18.972Z,6.00
2022-09-21T22:13:46.166Z,6.10
2022-09-21T22:16:15.556Z,6.20
2022-09-21T22:18:43.032Z,6.10
2022-09-21T22:21:12.209Z,6.10
2022-09-21T22:23:41.118Z,6.10
2022-09-21T22:26:10.184Z,6.00
2022-09-21T22:28:37.615Z,6.10
2022-09-21T22:31:09.324Z,6.10
2022-09-21T22:33:36.446Z,6.10
2022-09-21T22:36:06.839Z,5.90
2022-09-21T22:38:38.082Z,5.90
2022-09-21T22:41:10.369Z,5.90
2022-09-21T22:43:37.934Z,5.90
2022-09-21T22:46:05.514Z,5.80
2022-09-21T22:48:32.435Z,5.90
2022-09-21T22:50:59.868Z,5.80
2022-09-21T22:53:26.771Z,5.70
2022-09-21T22:56:03.106Z,5.70
2022-09-21T22:58:33.061Z,5.80
2022-09-21T23:01:04.820Z,5.70
2022-09-21T23:03:32.547Z,5.70
2022-09-21T23:06:00.116Z,5.50
2022-09-21T23:08:27.843Z,5.50
2022-09-21T23:10:55.506Z,5.40
2022-09-21T23:13:22.371Z,5.60
2022-09-21T23:15:50.428Z,5.50
2022-09-21T23:18:17.874Z,5.50
2022-09-21T23:20:44.616Z,5.50
2022-09-21T23:23:11.343Z,5.60
2022-09-21T23:25:38.676Z,5.50
2022-09-21T23:28:05.377Z,5.50
2022-09-21T23:30:32.079Z,5.60
2022-09-21T23:33:00.726Z,5.50
2022-09-21T23:35:27.437Z,5.60
2022-09-21T23:37:54.140Z,5.60
2022-09-21T23:40:21.551Z,5.60
2022-09-21T23:42:48.306Z,5.50
2022-09-21T23:45:15.104Z,5.50
2022-09-21T23:47:42.423Z,5.40
2022-09-21T23:50:10.795Z,5.40
2022-09-21T23:52:37.550Z,5.40
2022-09-21T23:55:05.460Z,5.30
2022-09-21T23:57:32.199Z,5.30
2022-09-21T23:59:58.917Z,5.40
